Time,TemperatureF,DewpointF,PressureIn,WindDirection,WindDirectionDegrees,WindSpeedMPH,WindSpeedGustMPH,Humidity,HourlyPrecipIn,Conditions,Clouds,dailyrainin,SoftwareType,DateUTC
2013-03-02 00:01:00,48.0,30.0,-100.00,SSW,200,9.0,16.0,50,-99.99,,,0.00,,2013-03-02 07:01:00,
2013-03-02 00:11:00,48.0,30.0,-100.00,SW,220,8.0,14.0,49,-99.99,,,0.00,,2013-03-02 07:11:00,
2013-03-02 00:21:00,48.0,30.0,-100.00,SW,220,8.0,14.0,49,-99.99,,,0.00,,2013-03-02 07:21:00,
2013-03-02 00:32:00,48.0,30.0,-100.00,South,190,11.0,14.0,49,-99.99,,,0.00,,2013-03-02 07:32:00,
2013-03-02 00:42:00,48.0,30.0,-100.00,South,190,11.0,14.0,49,-99.99,,,0.00,,2013-03-02 07:42:00,
2013-03-02 00:51:00,48.0,30.0,-100.00,South,190,12.0,16.0,49,-99.99,,,0.00,,2013-03-02 07:51:00,
2013-03-02 01:01:00,48.0,30.0,-100.00,South,190,12.0,16.0,49,-99.99,,,0.00,,2013-03-02 08:01:00,
2013-03-02 01:11:00,48.0,30.0,-100.00,South,185,21.0,23.0,49,-99.99,,,0.00,,2013-03-02 08:11:00,
2013-03-02 01:21:00,48.0,30.0,-100.00,South,185,21.0,23.0,49,-99.99,,,0.00,,2013-03-02 08:21:00,
2013-03-02 01:32:00,48.0,30.0,-100.00,SW,235,6.0,8.0,50,-99.99,,,0.00,,2013-03-02 08:32:00,
2013-03-02 01:42:00,48.0,30.0,-100.00,SW,235,6.0,8.0,50,-99.99,,,0.00,,2013-03-02 08:42:00,
2013-03-02 01:52:00,48.0,30.0,-100.00,SSW,195,17.0,22.0,50,-99.99,,,0.00,,2013-03-02 08:52:00,
2013-03-02 02:01:00,48.0,30.0,-100.00,SSW,195,17.0,22.0,50,-99.99,,,0.00,,2013-03-02 09:01:00,
2013-03-02 02:11:00,47.0,30.0,-100.00,South,180,21.0,26.0,50,-99.99,,,0.00,,2013-03-02 09:11:00,
2013-03-02 02:21:00,47.0,30.0,-100.00,South,180,21.0,26.0,50,-99.99,,,0.00,,2013-03-02 09:21:00,
2013-03-02 02:31:00,48.0,30.0,-100.00,South,180,10.0,14.0,50,-99.99,,,0.00,,2013-03-02 09:31:00,
2013-03-02 02:42:00,48.0,30.0,-100.00,South,180,10.0,14.0,50,-99.99,,,0.00,,2013-03-02 09:42:00,
2013-03-02 02:51:00,48.0,30.0,-100.00,South,175,16.0,21.0,49,-99.99,,,0.00,,2013-03-02 09:51:00,
2013-03-02 03:01:00,48.0,30.0,-100.00,South,175,16.0,21.0,49,-99.99,,,0.00,,2013-03-02 10:01:00,
2013-03-02 03:15:00,48.0,29.0,-100.00,South,180,9.0,12.0,49,-99.99,,,0.00,,2013-03-02 10:15:00,
2013-03-02 03:21:00,48.0,29.0,-100.00,South,180,9.0,12.0,49,-99.99,,,0.00,,2013-03-02 10:21:00,
2013-03-02 03:31:00,48.0,30.0,-100.00,South,190,14.0,18.0,49,-99.99,,,0.00,,2013-03-02 10:31:00,
2013-03-02 03:42:00,48.0,30.0,-100.00,South,190,14.0,18.0,49,-99.99,,,0.00,,2013-03-02 10:42:00,
2013-03-02 03:51:00,48.0,30.0,-100.00,SSW,195,16.0,19.0,49,-99.99,,,0.00,,2013-03-02 10:51:00,
2013-03-02 04:01:00,48.0,30.0,-100.00,SSW,195,16.0,19.0,49,-99.99,,,0.00,,2013-03-02 11:01:00,
2013-03-02 04:11:00,47.0,29.0,-100.00,South,185,11.0,15.0,49,-99.99,,,0.00,,2013-03-02 11:11:00,
2013-03-02 04:21:00,47.0,29.0,-100.00,South,185,11.0,15.0,49,-99.99,,,0.00,,2013-03-02 11:21:00,
2013-03-02 04:31:00,47.0,29.0,-100.00,SSW,200,8.0,14.0,49,-99.99,,,0.00,,2013-03-02 11:31:00,
2013-03-02 04:41:00,47.0,29.0,-100.00,SSW,200,8.0,14.0,49,-99.99,,,0.00,,2013-03-02 11:41:00,
2013-03-02 04:52:00,47.0,29.0,-100.00,South,175,8.0,11.0,49,-99.99,,,0.00,,2013-03-02 11:52:00,
2013-03-02 05:02:00,47.0,29.0,-100.00,South,175,8.0,11.0,49,-99.99,,,0.00,,2013-03-02 12:02:00,
2013-03-02 05:11:00,47.0,29.0,-100.00,South,175,7.0,11.0,50,-99.99,,,0.00,,2013-03-02 12:11:00,
2013-03-02 05:21:00,47.0,29.0,-100.00,South,175,7.0,11.0,50,-99.99,,,0.00,,2013-03-02 12:21:00,
2013-03-02 05:32:00,47.0,29.0,-100.00,South,185,9.0,12.0,50,-99.99,,,0.00,,2013-03-02 12:32:00,
2013-03-02 05:43:00,47.0,29.0,-100.00,South,185,9.0,12.0,50,-99.99,,,0.00,,2013-03-02 12:43:00,
2013-03-02 05:53:00,47.0,29.0,-100.00,SSW,195,7.0,9.0,50,-99.99,,,0.00,,2013-03-02 12:53:00,
2013-03-02 06:01:00,47.0,29.0,-100.00,SSW,195,7.0,9.0,50,-99.99,,,0.00,,2013-03-02 13:01:00,
2013-03-02 06:11:00,48.0,29.0,-100.00,SSW,200,6.0,9.0,49,-99.99,,,0.00,,2013-03-02 13:11:00,
2013-03-02 06:21:00,48.0,29.0,-100.00,SSW,200,6.0,9.0,49,-99.99,,,0.00,,2013-03-02 13:21:00,
2013-03-02 06:31:00,47.0,29.0,-100.00,SSW,210,8.0,12.0,49,-99.99,,,0.00,,2013-03-02 13:31:00,
2013-03-02 06:41:00,47.0,29.0,-100.00,SSW,210,8.0,12.0,49,-99.99,,,0.00,,2013-03-02 13:41:00,
2013-03-02 06:52:00,47.0,29.0,-100.00,SSW,195,10.0,14.0,49,-99.99,,,0.00,,2013-03-02 13:52:00,
2013-03-02 07:01:00,47.0,29.0,-100.00,SSW,195,10.0,14.0,49,-99.99,,,0.00,,2013-03-02 14:01:00,
2013-03-02 07:11:00,47.0,29.0,-100.00,SSW,205,11.0,17.0,48,-99.99,,,0.00,,2013-03-02 14:11:00,
2013-03-02 07:21:00,47.0,29.0,-100.00,SSW,205,11.0,17.0,48,-99.99,,,0.00,,2013-03-02 14:21:00,
2013-03-02 07:32:00,47.0,28.0,-100.00,South,185,11.0,18.0,48,-99.99,,,0.00,,2013-03-02 14:32:00,
2013-03-02 07:42:00,47.0,28.0,-100.00,South,185,11.0,18.0,48,-99.99,,,0.00,,2013-03-02 14:42:00,
2013-03-02 07:52:00,47.0,29.0,-100.00,South,190,10.0,14.0,48,-99.99,,,0.00,,2013-03-02 14:52:00,
2013-03-02 08:01:00,47.0,29.0,-100.00,South,190,10.0,14.0,48,-99.99,,,0.00,,2013-03-02 15:01:00,
2013-03-02 08:11:00,47.0,28.0,-100.00,SSW,195,17.0,21.0,47,-99.99,,,0.00,,2013-03-02 15:11:00,
2013-03-02 08:21:00,47.0,28.0,-100.00,SSW,195,17.0,21.0,47,-99.99,,,0.00,,2013-03-02 15:21:00,
2013-03-02 08:31:00,47.0,28.0,-100.00,South,190,17.0,22.0,47,-99.99,,,0.00,,2013-03-02 15:31:00,
2013-03-02 08:41:00,47.0,28.0,-100.00,South,190,17.0,22.0,47,-99.99,,,0.00,,2013-03-02 15:41:00,
2013-03-02 08:52:00,47.0,28.0,-100.00,South,185,20.0,24.0,47,-99.99,,,0.00,,2013-03-02 15:52:00,
2013-03-02 09:01:00,47.0,28.0,-100.00,South,185,20.0,24.0,47,-99.99,,,0.00,,2013-03-02 16:01:00,
2013-03-02 09:11:00,48.0,28.0,-100.00,South,190,14.0,23.0,46,-99.99,,,0.00,,2013-03-02 16:11:00,
2013-03-02 09:21:00,48.0,28.0,-100.00,South,190,14.0,23.0,46,-99.99,,,0.00,,2013-03-02 16:21:00,
2013-03-02 09:31:00,47.0,28.0,-100.00,South,190,12.0,14.0,46,-99.99,,,0.00,,2013-03-02 16:31:00,
2013-03-02 09:41:00,47.0,28.0,-100.00,South,190,12.0,14.0,46,-99.99,,,0.00,,2013-03-02 16:41:00,
2013-03-02 09:51:00,48.0,28.0,-100.00,South,185,12.0,16.0,46,-99.99,,,0.00,,2013-03-02 16:51:00,
2013-03-02 10:01:00,48.0,28.0,-100.00,South,185,12.0,16.0,46,-99.99,,,0.00,,2013-03-02 17:01:00,
2013-03-02 10:11:00,48.0,28.0,-100.00,SSW,205,8.0,14.0,45,-99.99,,,0.00,,2013-03-02 17:11:00,
2013-03-02 10:21:00,48.0,28.0,-100.00,SSW,205,8.0,14.0,45,-99.99,,,0.00,,2013-03-02 17:21:00,
2013-03-02 10:32:00,49.0,29.0,-100.00,South,185,15.0,21.0,45,-99.99,,,0.00,,2013-03-02 17:32:00,
2013-03-02 10:41:00,49.0,29.0,-100.00,South,185,15.0,21.0,45,-99.99,,,0.00,,2013-03-02 17:41:00,
2013-03-02 10:52:00,49.0,28.0,-100.00,South,185,12.0,17.0,44,-99.99,,,0.00,,2013-03-02 17:52:00,
2013-03-02 11:01:00,49.0,28.0,-100.00,South,185,12.0,17.0,44,-99.99,,,0.00,,2013-03-02 18:01:00,
2013-03-02 11:11:00,50.0,28.0,-100.00,South,190,16.0,19.0,43,-99.99,,,0.00,,2013-03-02 18:11:00,
2013-03-02 11:22:00,50.0,28.0,-100.00,South,190,16.0,19.0,43,-99.99,,,0.00,,2013-03-02 18:22:00,
2013-03-02 11:31:00,50.0,28.0,-100.00,South,190,11.0,16.0,42,-99.99,,,0.00,,2013-03-02 18:31:00,
2013-03-02 11:41:00,50.0,28.0,-100.00,South,190,11.0,16.0,42,-99.99,,,0.00,,2013-03-02 18:41:00,
2013-03-02 11:51:00,51.0,29.0,-100.00,South,185,14.0,17.0,42,-99.99,,,0.00,,2013-03-02 18:51:00,
2013-03-02 12:01:00,51.0,29.0,-100.00,South,185,14.0,17.0,42,-99.99,,,0.00,,2013-03-02 19:01:00,
2013-03-02 12:11:00,53.0,29.0,-100.00,South,185,11.0,15.0,40,-99.99,,,0.00,,2013-03-02 19:11:00,
2013-03-02 12:21:00,53.0,29.0,-100.00,South,185,11.0,15.0,40,-99.99,,,0.00,,2013-03-02 19:21:00,
2013-03-02 12:31:00,54.0,30.0,-100.00,SSW,210,9.0,12.0,39,-99.99,,,0.00,,2013-03-02 19:31:00,
2013-03-02 12:42:00,54.0,30.0,-100.00,SSW,210,9.0,12.0,39,-99.99,,,0.00,,2013-03-02 19:42:00,
2013-03-02 12:52:00,54.0,30.0,-100.00,SSW,205,9.0,16.0,39,-99.99,,,0.00,,2013-03-02 19:52:00,
2013-03-02 13:01:00,54.0,30.0,-100.00,SSW,205,9.0,16.0,39,-99.99,,,0.00,,2013-03-02 20:01:00,
2013-03-02 13:11:00,55.0,30.0,-100.00,SW,215,4.0,8.0,38,-99.99,,,0.00,,2013-03-02 20:11:00,
2013-03-02 13:21:00,55.0,30.0,-100.00,SW,215,4.0,8.0,38,-99.99,,,0.00,,2013-03-02 20:21:00,
2013-03-02 13:32:00,56.0,30.0,-100.00,SSE,155,10.0,16.0,37,-99.99,,,0.00,,2013-03-02 20:32:00,
2013-03-02 13:41:00,56.0,30.0,-100.00,SSE,155,10.0,16.0,37,-99.99,,,0.00,,2013-03-02 20:41:00,
2013-03-02 13:52:00,56.0,30.0,-100.00,SW,215,9.0,14.0,37,-99.99,,,0.00,,2013-03-02 20:52:00,
2013-03-02 14:02:00,56.0,30.0,-100.00,SW,215,9.0,14.0,37,-99.99,,,0.00,,2013-03-02 21:02:00,
2013-03-02 14:11:00,56.0,30.0,-100.00,South,185,16.0,20.0,36,-99.99,,,0.00,,2013-03-02 21:11:00,
2013-03-02 14:22:00,56.0,30.0,-100.00,South,185,16.0,20.0,36,-99.99,,,0.00,,2013-03-02 21:22:00,
2013-03-02 14:31:00,57.0,30.0,-100.00,SSW,195,14.0,20.0,36,-99.99,,,0.00,,2013-03-02 21:31:00,
2013-03-02 14:41:00,57.0,30.0,-100.00,SSW,195,14.0,20.0,36,-99.99,,,0.00,,2013-03-02 21:41:00,
2013-03-02 14:52:00,57.0,30.0,-100.00,South,190,16.0,20.0,36,-99.99,,,0.00,,2013-03-02 21:52:00,
2013-03-02 15:01:00,57.0,30.0,-100.00,South,190,16.0,20.0,36,-99.99,,,0.00,,2013-03-02 22:01:00,
2013-03-02 15:11:00,57.0,30.0,-100.00,South,190,16.0,20.0,36,-99.99,,,0.00,,2013-03-02 22:11:00,
2013-03-02 16:52:00,54.0,28.0,-100.00,South,185,15.0,19.0,36,-99.99,,,0.00,,2013-03-02 23:52:00,
2013-03-02 17:02:00,54.0,28.0,-100.00,South,185,15.0,19.0,36,-99.99,,,0.00,,2013-03-03 00:02:00,
2013-03-02 17:11:00,54.0,29.0,-100.00,South,190,8.0,12.0,38,-99.99,,,0.00,,2013-03-03 00:11:00,
2013-03-02 17:22:00,54.0,29.0,-100.00,South,190,8.0,12.0,38,-99.99,,,0.00,,2013-03-03 00:22:00,
2013-03-02 17:32:00,53.0,28.0,-100.00,South,190,10.0,14.0,38,-99.99,,,0.00,,2013-03-03 00:32:00,
2013-03-02 17:42:00,53.0,28.0,-100.00,South,190,10.0,14.0,38,-99.99,,,0.00,,2013-03-03 00:42:00,
2013-03-02 17:52:00,53.0,29.0,-100.00,SSW,195,9.0,12.0,39,-99.99,,,0.00,,2013-03-03 00:52:00,
2013-03-02 18:01:00,53.0,29.0,-100.00,SSW,195,9.0,12.0,39,-99.99,,,0.00,,2013-03-03 01:01:00,
2013-03-02 18:11:00,52.0,29.0,-100.00,SE,140,0.0,3.0,40,-99.99,,,0.00,,2013-03-03 01:11:00,
2013-03-02 18:21:00,52.0,29.0,-100.00,SE,140,0.0,3.0,40,-99.99,,,0.00,,2013-03-03 01:21:00,
2013-03-02 18:31:00,52.0,28.0,-100.00,South,190,3.0,6.0,40,-99.99,,,0.00,,2013-03-03 01:31:00,
2013-03-02 18:41:00,52.0,28.0,-100.00,South,190,3.0,6.0,40,-99.99,,,0.00,,2013-03-03 01:41:00,
2013-03-02 18:52:00,51.0,28.0,-100.00,SSW,195,8.0,8.0,41,-99.99,,,0.00,,2013-03-03 01:52:00,
2013-03-02 19:01:00,51.0,28.0,-100.00,SSW,195,8.0,8.0,41,-99.99,,,0.00,,2013-03-03 02:01:00,
2013-03-02 19:11:00,51.0,28.0,-100.00,South,190,8.0,11.0,42,-99.99,,,0.00,,2013-03-03 02:11:00,
2013-03-02 19:21:00,51.0,28.0,-100.00,South,190,8.0,11.0,42,-99.99,,,0.00,,2013-03-03 02:21:00,
2013-03-02 19:31:00,50.0,28.0,-100.00,South,185,2.0,4.0,42,-99.99,,,0.00,,2013-03-03 02:31:00,
2013-03-02 19:41:00,50.0,28.0,-100.00,South,185,2.0,4.0,42,-99.99,,,0.00,,2013-03-03 02:41:00,
2013-03-02 19:52:00,49.0,27.0,-100.00,South,180,3.0,5.0,42,-99.99,,,0.00,,2013-03-03 02:52:00,
2013-03-02 20:01:00,49.0,27.0,-100.00,South,180,3.0,5.0,42,-99.99,,,0.00,,2013-03-03 03:01:00,
2013-03-02 20:11:00,47.0,27.0,-100.00,North,-999,0.0,0.0,45,-99.99,,,0.00,,2013-03-03 03:11:00,
2013-03-02 20:21:00,47.0,27.0,-100.00,North,-999,0.0,0.0,45,-99.99,,,0.00,,2013-03-03 03:21:00,
2013-03-02 20:31:00,45.0,26.0,-100.00,North,-999,0.0,0.0,47,-99.99,,,0.00,,2013-03-03 03:31:00,
2013-03-02 20:41:00,45.0,26.0,-100.00,North,-999,0.0,0.0,47,-99.99,,,0.00,,2013-03-03 03:41:00,
2013-03-02 20:51:00,44.0,26.0,-100.00,North,-999,0.0,0.0,49,-99.99,,,0.00,,2013-03-03 03:51:00,
2013-03-02 21:01:00,44.0,26.0,-100.00,North,-999,0.0,0.0,49,-99.99,,,0.00,,2013-03-03 04:01:00,
2013-03-02 21:11:00,43.0,26.0,-100.00,South,175,1.0,3.0,52,-99.99,,,0.00,,2013-03-03 04:11:00,
2013-03-02 21:21:00,43.0,26.0,-100.00,South,175,1.0,3.0,52,-99.99,,,0.00,,2013-03-03 04:21:00,
2013-03-02 21:31:00,40.0,26.0,-100.00,North,-999,0.0,0.0,57,-99.99,,,0.00,,2013-03-03 04:31:00,
2013-03-02 21:41:00,40.0,26.0,-100.00,North,-999,0.0,0.0,57,-99.99,,,0.00,,2013-03-03 04:41:00,
2013-03-02 21:51:00,39.0,26.0,-100.00,SSW,200,0.0,1.0,59,-99.99,,,0.00,,2013-03-03 04:51:00,
2013-03-02 22:01:00,39.0,26.0,-100.00,SSW,200,0.0,1.0,59,-99.99,,,0.00,,2013-03-03 05:01:00,
2013-03-02 22:11:00,38.0,27.0,-100.00,SSW,195,1.0,3.0,64,-99.99,,,0.00,,2013-03-03 05:11:00,
2013-03-02 22:22:00,38.0,27.0,-100.00,SSW,195,1.0,3.0,64,-99.99,,,0.00,,2013-03-03 05:22:00,
2013-03-02 22:32:00,36.0,27.0,-100.00,South,175,0.0,1.0,67,-99.99,,,0.00,,2013-03-03 05:32:00,
2013-03-02 22:42:00,36.0,27.0,-100.00,South,175,0.0,1.0,67,-99.99,,,0.00,,2013-03-03 05:42:00,
2013-03-02 22:52:00,37.0,28.0,-100.00,SSW,200,1.0,3.0,69,-99.99,,,0.00,,2013-03-03 05:52:00,
2013-03-02 23:01:00,37.0,28.0,-100.00,SSW,200,1.0,3.0,69,-99.99,,,0.00,,2013-03-03 06:01:00,
2013-03-02 23:11:00,37.0,28.0,-100.00,South,190,3.0,6.0,68,-99.99,,,0.00,,2013-03-03 06:11:00,
2013-03-02 23:21:00,37.0,28.0,-100.00,South,190,3.0,6.0,68,-99.99,,,0.00,,2013-03-03 06:21:00,
2013-03-02 23:31:00,38.0,28.0,-100.00,South,190,8.0,9.0,67,-99.99,,,0.00,,2013-03-03 06:31:00,
2013-03-02 23:42:00,38.0,28.0,-100.00,South,190,8.0,9.0,67,-99.99,,,0.00,,2013-03-03 06:42:00,
2013-03-02 23:52:00,38.0,28.0,-100.00,South,190,8.0,8.0,68,-99.99,,,0.00,,2013-03-03 06:52:00,